sensor_id;sensor_type;location;lat;lon;timestamp;temperature;humidity
47618;DHT22;33336;36.728;-4.414;2022-12-29T00:02:06;14.50;94.10
47618;DHT22;33336;36.728;-4.414;2022-12-29T00:07:09;14.50;94.50
47618;DHT22;33336;36.728;-4.414;2022-12-29T00:12:14;14.40;94.60
47618;DHT22;33336;36.728;-4.414;2022-12-29T00:17:17;14.40;94.40
47618;DHT22;33336;36.728;-4.414;2022-12-29T00:22:20;14.30;94.30
47618;DHT22;33336;36.728;-4.414;2022-12-29T00:27:43;14.10;94.50
47618;DHT22;33336;36.728;-4.414;2022-12-29T00:33:09;14.10;95.30
47618;DHT22;33336;36.728;-4.414;2022-12-29T00:38:31;14.10;94.70
47618;DHT22;33336;36.728;-4.414;2022-12-29T00:43:54;14.10;94.30
47618;DHT22;33336;36.728;-4.414;2022-12-29T00:49:13;14.10;94.00
47618;DHT22;33336;36.728;-4.414;2022-12-29T00:54:35;14.00;94.10
47618;DHT22;33336;36.728;-4.414;2022-12-29T00:59:41;13.90;93.80
47618;DHT22;33336;36.728;-4.414;2022-12-29T01:04:44;13.90;93.80
47618;DHT22;33336;36.728;-4.414;2022-12-29T01:09:46;13.90;93.70
47618;DHT22;33336;36.728;-4.414;2022-12-29T01:15:10;13.90;93.40
47618;DHT22;33336;36.728;-4.414;2022-12-29T01:20:13;13.50;93.90
47618;DHT22;33336;36.728;-4.414;2022-12-29T01:25:16;13.60;93.60
47618;DHT22;33336;36.728;-4.414;2022-12-29T01:30:22;13.50;93.50
47618;DHT22;33336;36.728;-4.414;2022-12-29T01:35:25;13.60;93.40
47618;DHT22;33336;36.728;-4.414;2022-12-29T01:40:28;13.80;93.30
47618;DHT22;33336;36.728;-4.414;2022-12-29T01:45:32;13.80;93.00
47618;DHT22;33336;36.728;-4.414;2022-12-29T01:50:38;13.90;92.70
47618;DHT22;33336;36.728;-4.414;2022-12-29T01:55:44;13.90;92.70
47618;DHT22;33336;36.728;-4.414;2022-12-29T02:00:50;13.90;92.60
47618;DHT22;33336;36.728;-4.414;2022-12-29T02:05:58;13.90;92.40
47618;DHT22;33336;36.728;-4.414;2022-12-29T02:11:02;13.80;92.30
47618;DHT22;33336;36.728;-4.414;2022-12-29T02:16:18;13.60;92.40
47618;DHT22;33336;36.728;-4.414;2022-12-29T02:21:48;13.70;92.60
47618;DHT22;33336;36.728;-4.414;2022-12-29T02:27:21;13.70;92.80
47618;DHT22;33336;36.728;-4.414;2022-12-29T02:32:37;13.70;92.40
47618;DHT22;33336;36.728;-4.414;2022-12-29T02:37:43;13.80;92.30
47618;DHT22;33336;36.728;-4.414;2022-12-29T02:42:51;13.80;92.10
47618;DHT22;33336;36.728;-4.414;2022-12-29T02:48:06;13.70;92.30
47618;DHT22;33336;36.728;-4.414;2022-12-29T02:53:14;13.50;92.90
47618;DHT22;33336;36.728;-4.414;2022-12-29T02:58:38;13.50;93.00
47618;DHT22;33336;36.728;-4.414;2022-12-29T03:03:54;13.60;93.10
47618;DHT22;33336;36.728;-4.414;2022-12-29T03:09:05;13.60;93.20
47618;DHT22;33336;36.728;-4.414;2022-12-29T03:14:17;13.70;92.90
47618;DHT22;33336;36.728;-4.414;2022-12-29T03:19:47;13.60;93.00
47618;DHT22;33336;36.728;-4.414;2022-12-29T03:24:54;13.60;93.10
47618;DHT22;33336;36.728;-4.414;2022-12-29T03:30:01;13.60;93.30
47618;DHT22;33336;36.728;-4.414;2022-12-29T03:35:09;13.50;93.60
47618;DHT22;33336;36.728;-4.414;2022-12-29T03:40:13;13.50;93.30
47618;DHT22;33336;36.728;-4.414;2022-12-29T03:45:16;13.50;93.10
47618;DHT22;33336;36.728;-4.414;2022-12-29T03:50:20;13.50;92.90
47618;DHT22;33336;36.728;-4.414;2022-12-29T03:55:24;13.40;92.80
47618;DHT22;33336;36.728;-4.414;2022-12-29T04:00:27;13.50;92.40
47618;DHT22;33336;36.728;-4.414;2022-12-29T04:05:32;13.60;92.00
47618;DHT22;33336;36.728;-4.414;2022-12-29T04:10:35;13.60;92.10
47618;DHT22;33336;36.728;-4.414;2022-12-29T04:15:38;13.50;92.30
47618;DHT22;33336;36.728;-4.414;2022-12-29T04:20:44;13.60;91.80
47618;DHT22;33336;36.728;-4.414;2022-12-29T04:26:05;13.50;91.90
47618;DHT22;33336;36.728;-4.414;2022-12-29T04:31:08;13.50;92.20
47618;DHT22;33336;36.728;-4.414;2022-12-29T04:36:13;13.20;92.50
47618;DHT22;33336;36.728;-4.414;2022-12-29T04:41:16;13.20;92.70
47618;DHT22;33336;36.728;-4.414;2022-12-29T04:46:19;13.30;92.80
47618;DHT22;33336;36.728;-4.414;2022-12-29T04:51:23;13.30;92.50
47618;DHT22;33336;36.728;-4.414;2022-12-29T04:56:26;13.20;91.80
47618;DHT22;33336;36.728;-4.414;2022-12-29T05:01:29;13.10;92.00
47618;DHT22;33336;36.728;-4.414;2022-12-29T05:06:34;13.30;92.20
47618;DHT22;33336;36.728;-4.414;2022-12-29T05:11:37;13.30;92.20
47618;DHT22;33336;36.728;-4.414;2022-12-29T05:16:41;13.20;92.50
47618;DHT22;33336;36.728;-4.414;2022-12-29T05:21:45;13.20;92.60
47618;DHT22;33336;36.728;-4.414;2022-12-29T05:26:49;13.30;92.60
47618;DHT22;33336;36.728;-4.414;2022-12-29T05:31:53;13.30;92.70
47618;DHT22;33336;36.728;-4.414;2022-12-29T05:36:57;13.20;92.50
47618;DHT22;33336;36.728;-4.414;2022-12-29T05:42:00;13.20;92.80
47618;DHT22;33336;36.728;-4.414;2022-12-29T05:47:03;13.20;92.90
47618;DHT22;33336;36.728;-4.414;2022-12-29T05:52:07;13.30;92.60
47618;DHT22;33336;36.728;-4.414;2022-12-29T05:57:10;13.10;92.90
47618;DHT22;33336;36.728;-4.414;2022-12-29T06:02:13;13.00;92.90
47618;DHT22;33336;36.728;-4.414;2022-12-29T06:07:17;13.00;93.50
47618;DHT22;33336;36.728;-4.414;2022-12-29T06:12:20;13.00;93.90
47618;DHT22;33336;36.728;-4.414;2022-12-29T06:17:24;12.90;94.20
47618;DHT22;33336;36.728;-4.414;2022-12-29T06:22:28;12.90;94.20
47618;DHT22;33336;36.728;-4.414;2022-12-29T06:27:31;12.70;94.40
47618;DHT22;33336;36.728;-4.414;2022-12-29T06:32:34;12.70;94.10
47618;DHT22;33336;36.728;-4.414;2022-12-29T06:37:38;12.60;94.90
47618;DHT22;33336;36.728;-4.414;2022-12-29T06:42:42;12.60;94.80
47618;DHT22;33336;36.728;-4.414;2022-12-29T06:47:45;12.70;94.90
47618;DHT22;33336;36.728;-4.414;2022-12-29T06:52:49;12.70;94.70
47618;DHT22;33336;36.728;-4.414;2022-12-29T06:57:54;12.70;94.80
47618;DHT22;33336;36.728;-4.414;2022-12-29T07:02:57;12.80;94.70
47618;DHT22;33336;36.728;-4.414;2022-12-29T07:08:01;12.80;95.10
47618;DHT22;33336;36.728;-4.414;2022-12-29T07:13:04;12.70;94.20
47618;DHT22;33336;36.728;-4.414;2022-12-29T07:18:09;12.60;94.20
47618;DHT22;33336;36.728;-4.414;2022-12-29T07:23:14;12.70;94.40
47618;DHT22;33336;36.728;-4.414;2022-12-29T07:28:17;12.60;93.50
47618;DHT22;33336;36.728;-4.414;2022-12-29T07:33:20;12.60;94.40
47618;DHT22;33336;36.728;-4.414;2022-12-29T07:38:24;12.60;94.40
47618;DHT22;33336;36.728;-4.414;2022-12-29T07:43:27;12.60;94.30
47618;DHT22;33336;36.728;-4.414;2022-12-29T07:48:31;12.70;93.70
47618;DHT22;33336;36.728;-4.414;2022-12-29T07:53:38;12.80;93.10
47618;DHT22;33336;36.728;-4.414;2022-12-29T07:58:42;12.80;93.40
47618;DHT22;33336;36.728;-4.414;2022-12-29T08:03:45;12.70;93.30
47618;DHT22;33336;36.728;-4.414;2022-12-29T08:08:49;12.80;93.40
47618;DHT22;33336;36.728;-4.414;2022-12-29T08:13:52;12.70;93.30
47618;DHT22;33336;36.728;-4.414;2022-12-29T08:18:56;12.60;93.50
47618;DHT22;33336;36.728;-4.414;2022-12-29T08:24:01;12.90;93.00
47618;DHT22;33336;36.728;-4.414;2022-12-29T08:29:05;13.00;92.70
47618;DHT22;33336;36.728;-4.414;2022-12-29T08:34:08;13.30;92.10
47618;DHT22;33336;36.728;-4.414;2022-12-29T08:39:12;13.40;91.80
47618;DHT22;33336;36.728;-4.414;2022-12-29T08:44:15;13.20;91.50
47618;DHT22;33336;36.728;-4.414;2022-12-29T08:49:19;13.30;91.70
47618;DHT22;33336;36.728;-4.414;2022-12-29T08:54:23;13.50;91.80
47618;DHT22;33336;36.728;-4.414;2022-12-29T08:59:27;13.80;91.70
47618;DHT22;33336;36.728;-4.414;2022-12-29T09:04:30;13.90;91.50
47618;DHT22;33336;36.728;-4.414;2022-12-29T09:09:34;14.10;91.60
47618;DHT22;33336;36.728;-4.414;2022-12-29T09:14:37;14.30;91.60
47618;DHT22;33336;36.728;-4.414;2022-12-29T09:19:41;14.30;91.50
47618;DHT22;33336;36.728;-4.414;2022-12-29T09:24:45;14.40;91.70
47618;DHT22;33336;36.728;-4.414;2022-12-29T09:29:48;14.60;91.70
47618;DHT22;33336;36.728;-4.414;2022-12-29T09:34:51;14.70;91.70
47618;DHT22;33336;36.728;-4.414;2022-12-29T09:39:55;15.20;91.20
47618;DHT22;33336;36.728;-4.414;2022-12-29T09:45:07;15.20;91.20
47618;DHT22;33336;36.728;-4.414;2022-12-29T09:50:23;15.10;91.20
47618;DHT22;33336;36.728;-4.414;2022-12-29T09:55:33;15.30;91.10
47618;DHT22;33336;36.728;-4.414;2022-12-29T10:00:40;15.50;90.80
47618;DHT22;33336;36.728;-4.414;2022-12-29T10:05:50;15.70;90.60
47618;DHT22;33336;36.728;-4.414;2022-12-29T10:11:01;16.00;90.30
47618;DHT22;33336;36.728;-4.414;2022-12-29T10:16:09;16.20;90.00
47618;DHT22;33336;36.728;-4.414;2022-12-29T10:21:18;16.30;89.40
47618;DHT22;33336;36.728;-4.414;2022-12-29T10:26:28;16.50;89.20
47618;DHT22;33336;36.728;-4.414;2022-12-29T10:31:37;16.80;88.40
47618;DHT22;33336;36.728;-4.414;2022-12-29T10:36:44;17.30;87.90
47618;DHT22;33336;36.728;-4.414;2022-12-29T10:41:56;17.40;87.10
47618;DHT22;33336;36.728;-4.414;2022-12-29T10:47:03;17.70;87.10
47618;DHT22;33336;36.728;-4.414;2022-12-29T10:52:09;18.00;86.90
47618;DHT22;33336;36.728;-4.414;2022-12-29T10:57:24;18.10;85.40
47618;DHT22;33336;36.728;-4.414;2022-12-29T11:02:51;18.50;83.90
47618;DHT22;33336;36.728;-4.414;2022-12-29T11:07:59;18.80;83.90
47618;DHT22;33336;36.728;-4.414;2022-12-29T11:13:11;19.40;76.40
47618;DHT22;33336;36.728;-4.414;2022-12-29T11:18:20;19.70;74.70
47618;DHT22;33336;36.728;-4.414;2022-12-29T11:23:29;20.00;73.50
47618;DHT22;33336;36.728;-4.414;2022-12-29T11:28:33;20.30;72.40
47618;DHT22;33336;36.728;-4.414;2022-12-29T11:33:38;20.50;72.00
47618;DHT22;33336;36.728;-4.414;2022-12-29T11:38:45;20.80;74.10
47618;DHT22;33336;36.728;-4.414;2022-12-29T11:43:51;20.80;72.20
47618;DHT22;33336;36.728;-4.414;2022-12-29T11:48:56;21.00;71.80
47618;DHT22;33336;36.728;-4.414;2022-12-29T11:54:03;21.20;72.10
47618;DHT22;33336;36.728;-4.414;2022-12-29T11:59:38;21.40;72.50
47618;DHT22;33336;36.728;-4.414;2022-12-29T12:04:43;21.20;69.80
47618;DHT22;33336;36.728;-4.414;2022-12-29T12:09:50;21.10;69.40
47618;DHT22;33336;36.728;-4.414;2022-12-29T12:14:58;21.20;69.50
47618;DHT22;33336;36.728;-4.414;2022-12-29T12:20:10;21.40;70.20
47618;DHT22;33336;36.728;-4.414;2022-12-29T12:25:19;21.80;70.10
47618;DHT22;33336;36.728;-4.414;2022-12-29T12:30:28;21.90;70.50
47618;DHT22;33336;36.728;-4.414;2022-12-29T12:35:37;22.20;69.30
47618;DHT22;33336;36.728;-4.414;2022-12-29T12:40:58;22.50;69.30
47618;DHT22;33336;36.728;-4.414;2022-12-29T12:46:17;22.60;67.80
47618;DHT22;33336;36.728;-4.414;2022-12-29T12:51:30;22.70;68.90
47618;DHT22;33336;36.728;-4.414;2022-12-29T12:57:00;22.40;67.50
47618;DHT22;33336;36.728;-4.414;2022-12-29T13:02:23;22.80;67.10
47618;DHT22;33336;36.728;-4.414;2022-12-29T13:07:39;23.00;66.60
47618;DHT22;33336;36.728;-4.414;2022-12-29T13:12:48;23.20;66.20
47618;DHT22;33336;36.728;-4.414;2022-12-29T13:18:02;23.00;66.30
47618;DHT22;33336;36.728;-4.414;2022-12-29T13:23:10;23.30;66.10
47618;DHT22;33336;36.728;-4.414;2022-12-29T13:28:20;23.70;65.60
47618;DHT22;33336;36.728;-4.414;2022-12-29T13:33:32;24.10;66.70
47618;DHT22;33336;36.728;-4.414;2022-12-29T13:38:40;24.10;64.80
47618;DHT22;33336;36.728;-4.414;2022-12-29T13:43:46;24.80;65.70
47618;DHT22;33336;36.728;-4.414;2022-12-29T13:48:56;25.40;64.10
47618;DHT22;33336;36.728;-4.414;2022-12-29T13:54:11;25.80;61.80
47618;DHT22;33336;36.728;-4.414;2022-12-29T13:59:21;25.10;63.00
47618;DHT22;33336;36.728;-4.414;2022-12-29T14:04:31;25.70;61.70
47618;DHT22;33336;36.728;-4.414;2022-12-29T14:09:42;25.70;61.80
47618;DHT22;33336;36.728;-4.414;2022-12-29T14:14:45;25.60;62.30
47618;DHT22;33336;36.728;-4.414;2022-12-29T14:19:53;26.90;62.00
47618;DHT22;33336;36.728;-4.414;2022-12-29T14:24:56;28.20;60.60
47618;DHT22;33336;36.728;-4.414;2022-12-29T14:30:00;27.90;61.70
47618;DHT22;33336;36.728;-4.414;2022-12-29T14:35:40;28.60;60.90
47618;DHT22;33336;36.728;-4.414;2022-12-29T14:40:44;28.80;57.70
47618;DHT22;33336;36.728;-4.414;2022-12-29T14:45:54;28.60;61.20
47618;DHT22;33336;36.728;-4.414;2022-12-29T14:50:58;28.90;58.60
47618;DHT22;33336;36.728;-4.414;2022-12-29T14:56:02;29.90;57.90
47618;DHT22;33336;36.728;-4.414;2022-12-29T15:01:19;29.60;59.60
47618;DHT22;33336;36.728;-4.414;2022-12-29T15:06:25;29.10;58.90
47618;DHT22;33336;36.728;-4.414;2022-12-29T15:11:44;27.90;57.20
47618;DHT22;33336;36.728;-4.414;2022-12-29T15:16:48;28.70;58.90
47618;DHT22;33336;36.728;-4.414;2022-12-29T15:21:54;30.40;57.00
47618;DHT22;33336;36.728;-4.414;2022-12-29T15:27:03;29.00;57.80
47618;DHT22;33336;36.728;-4.414;2022-12-29T15:32:21;30.50;55.90
47618;DHT22;33336;36.728;-4.414;2022-12-29T15:37:26;29.40;56.60
47618;DHT22;33336;36.728;-4.414;2022-12-29T15:42:54;29.90;57.20
47618;DHT22;33336;36.728;-4.414;2022-12-29T15:48:01;28.00;56.10
47618;DHT22;33336;36.728;-4.414;2022-12-29T15:53:10;27.80;56.60
47618;DHT22;33336;36.728;-4.414;2022-12-29T15:58:21;29.60;58.60
47618;DHT22;33336;36.728;-4.414;2022-12-29T16:03:26;29.70;56.20
47618;DHT22;33336;36.728;-4.414;2022-12-29T16:08:33;29.70;56.70
47618;DHT22;33336;36.728;-4.414;2022-12-29T16:13:40;31.20;58.30
47618;DHT22;33336;36.728;-4.414;2022-12-29T16:18:44;30.40;55.70
47618;DHT22;33336;36.728;-4.414;2022-12-29T16:23:51;31.00;56.50
47618;DHT22;33336;36.728;-4.414;2022-12-29T16:28:57;30.80;56.50
47618;DHT22;33336;36.728;-4.414;2022-12-29T16:34:12;29.70;56.80
47618;DHT22;33336;36.728;-4.414;2022-12-29T16:39:28;30.40;57.30
47618;DHT22;33336;36.728;-4.414;2022-12-29T16:44:33;29.70;57.50
47618;DHT22;33336;36.728;-4.414;2022-12-29T16:49:37;28.80;58.40
47618;DHT22;33336;36.728;-4.414;2022-12-29T16:54:49;28.50;58.80
47618;DHT22;33336;36.728;-4.414;2022-12-29T16:59:55;28.50;58.50
47618;DHT22;33336;36.728;-4.414;2022-12-29T17:04:59;28.20;59.30
47618;DHT22;33336;36.728;-4.414;2022-12-29T17:10:03;27.40;60.20
47618;DHT22;33336;36.728;-4.414;2022-12-29T17:15:10;27.10;60.30
47618;DHT22;33336;36.728;-4.414;2022-12-29T17:20:15;26.80;60.80
47618;DHT22;33336;36.728;-4.414;2022-12-29T17:25:22;26.40;60.80
47618;DHT22;33336;36.728;-4.414;2022-12-29T17:30:27;25.60;61.80
47618;DHT22;33336;36.728;-4.414;2022-12-29T17:35:31;24.80;62.90
47618;DHT22;33336;36.728;-4.414;2022-12-29T17:40:35;23.90;64.70
47618;DHT22;33336;36.728;-4.414;2022-12-29T17:45:40;23.60;65.10
47618;DHT22;33336;36.728;-4.414;2022-12-29T17:50:43;23.10;66.10
47618;DHT22;33336;36.728;-4.414;2022-12-29T17:55:49;23.40;66.20
47618;DHT22;33336;36.728;-4.414;2022-12-29T18:00:55;23.40;66.20
47618;DHT22;33336;36.728;-4.414;2022-12-29T18:06:00;23.10;66.90
47618;DHT22;33336;36.728;-4.414;2022-12-29T18:11:22;23.00;66.90
47618;DHT22;33336;36.728;-4.414;2022-12-29T18:16:26;22.60;68.40
47618;DHT22;33336;36.728;-4.414;2022-12-29T18:21:29;22.40;68.90
47618;DHT22;33336;36.728;-4.414;2022-12-29T18:26:34;22.20;69.60
47618;DHT22;33336;36.728;-4.414;2022-12-29T18:31:38;22.10;70.10
47618;DHT22;33336;36.728;-4.414;2022-12-29T18:36:41;22.00;70.60
47618;DHT22;33336;36.728;-4.414;2022-12-29T18:41:45;21.70;71.30
47618;DHT22;33336;36.728;-4.414;2022-12-29T18:46:49;21.40;72.10
47618;DHT22;33336;36.728;-4.414;2022-12-29T18:51:52;21.20;72.60
47618;DHT22;33336;36.728;-4.414;2022-12-29T18:56:57;21.10;72.90
47618;DHT22;33336;36.728;-4.414;2022-12-29T19:02:01;20.80;74.00
47618;DHT22;33336;36.728;-4.414;2022-12-29T19:07:04;20.70;73.70
47618;DHT22;33336;36.728;-4.414;2022-12-29T19:12:13;20.60;74.90
47618;DHT22;33336;36.728;-4.414;2022-12-29T19:17:36;20.50;75.00
47618;DHT22;33336;36.728;-4.414;2022-12-29T19:22:40;20.40;75.10
47618;DHT22;33336;36.728;-4.414;2022-12-29T19:27:44;20.30;75.60
47618;DHT22;33336;36.728;-4.414;2022-12-29T19:32:48;20.00;76.20
47618;DHT22;33336;36.728;-4.414;2022-12-29T19:37:53;19.80;76.60
47618;DHT22;33336;36.728;-4.414;2022-12-29T19:42:57;19.30;78.20
47618;DHT22;33336;36.728;-4.414;2022-12-29T19:48:01;19.20;78.90
47618;DHT22;33336;36.728;-4.414;2022-12-29T19:53:03;19.10;79.20
47618;DHT22;33336;36.728;-4.414;2022-12-29T19:58:08;19.10;79.30
47618;DHT22;33336;36.728;-4.414;2022-12-29T20:03:11;19.10;79.40
47618;DHT22;33336;36.728;-4.414;2022-12-29T20:08:15;19.20;80.20
47618;DHT22;33336;36.728;-4.414;2022-12-29T20:13:19;19.10;80.70
47618;DHT22;33336;36.728;-4.414;2022-12-29T20:18:23;19.10;81.10
47618;DHT22;33336;36.728;-4.414;2022-12-29T20:23:26;19.10;81.60
47618;DHT22;33336;36.728;-4.414;2022-12-29T20:28:31;19.10;81.90
47618;DHT22;33336;36.728;-4.414;2022-12-29T20:33:34;19.00;82.10
47618;DHT22;33336;36.728;-4.414;2022-12-29T20:38:38;18.90;82.80
47618;DHT22;33336;36.728;-4.414;2022-12-29T20:43:42;18.80;84.00
47618;DHT22;33336;36.728;-4.414;2022-12-29T20:48:46;18.90;83.50
47618;DHT22;33336;36.728;-4.414;2022-12-29T20:53:48;18.70;84.60
47618;DHT22;33336;36.728;-4.414;2022-12-29T20:58:54;18.50;85.10
47618;DHT22;33336;36.728;-4.414;2022-12-29T21:03:56;18.50;84.90
47618;DHT22;33336;36.728;-4.414;2022-12-29T21:09:01;18.40;85.80
47618;DHT22;33336;36.728;-4.414;2022-12-29T21:14:05;18.40;85.20
47618;DHT22;33336;36.728;-4.414;2022-12-29T21:19:10;18.40;86.20
47618;DHT22;33336;36.728;-4.414;2022-12-29T21:24:13;18.40;85.80
47618;DHT22;33336;36.728;-4.414;2022-12-29T21:29:18;18.40;85.90
47618;DHT22;33336;36.728;-4.414;2022-12-29T21:34:21;18.40;86.70
47618;DHT22;33336;36.728;-4.414;2022-12-29T21:39:25;18.30;86.60
47618;DHT22;33336;36.728;-4.414;2022-12-29T21:44:29;18.30;87.10
47618;DHT22;33336;36.728;-4.414;2022-12-29T21:49:50;18.20;87.90
47618;DHT22;33336;36.728;-4.414;2022-12-29T21:54:56;18.30;87.10
47618;DHT22;33336;36.728;-4.414;2022-12-29T22:00:06;18.20;86.80
47618;DHT22;33336;36.728;-4.414;2022-12-29T22:05:26;18.20;87.00
47618;DHT22;33336;36.728;-4.414;2022-12-29T22:10:48;18.20;86.30
47618;DHT22;33336;36.728;-4.414;2022-12-29T22:16:10;18.20;86.30
47618;DHT22;33336;36.728;-4.414;2022-12-29T22:21:14;18.00;87.30
47618;DHT22;33336;36.728;-4.414;2022-12-29T22:26:16;18.00;87.50
47618;DHT22;33336;36.728;-4.414;2022-12-29T22:31:23;18.00;87.80
47618;DHT22;33336;36.728;-4.414;2022-12-29T22:36:28;17.80;88.60
47618;DHT22;33336;36.728;-4.414;2022-12-29T22:41:33;17.80;89.00
47618;DHT22;33336;36.728;-4.414;2022-12-29T22:46:37;17.60;89.50
47618;DHT22;33336;36.728;-4.414;2022-12-29T22:51:40;17.60;89.20
47618;DHT22;33336;36.728;-4.414;2022-12-29T22:56:42;17.60;89.80
47618;DHT22;33336;36.728;-4.414;2022-12-29T23:01:47;17.70;89.00
47618;DHT22;33336;36.728;-4.414;2022-12-29T23:06:50;17.70;90.00
47618;DHT22;33336;36.728;-4.414;2022-12-29T23:11:54;17.60;89.70
47618;DHT22;33336;36.728;-4.414;2022-12-29T23:16:58;17.70;89.40
47618;DHT22;33336;36.728;-4.414;2022-12-29T23:22:01;17.60;89.50
47618;DHT22;33336;36.728;-4.414;2022-12-29T23:27:04;17.60;89.80
47618;DHT22;33336;36.728;-4.414;2022-12-29T23:32:09;17.50;89.90
47618;DHT22;33336;36.728;-4.414;2022-12-29T23:37:11;17.50;89.80
47618;DHT22;33336;36.728;-4.414;2022-12-29T23:42:14;17.60;89.50
47618;DHT22;33336;36.728;-4.414;2022-12-29T23:47:18;17.40;90.30
47618;DHT22;33336;36.728;-4.414;2022-12-29T23:52:21;17.20;90.40
47618;DHT22;33336;36.728;-4.414;2022-12-29T23:57:24;17.10;90.50
